Flight Track Log - Related Links

Times and Time Zones

All times are in EDT time to prevent confusion due to time zone crossing. See the N423S flight status page for this flight to view local times or setup timezone preferences in your user account.

Time Position Orientation Groundspeed Altitude Reporting Facility
EDT Latitude Longitude Course Direction KTS MPH feet Rate Location/Type
Sun 10:49:13 AM 41.6706 -86.3417 139° Southeast 107 123 3,000  Level Chicago Center
Sun 10:50:14 AM 41.6469 -86.3064 132° Southeast 107 123 3,900 829 Climbing Chicago Center
Sun 10:51:16 AM 41.6281 -86.2783 132° Southeast 107 123 4,700 537 Climbing Chicago Center
Sun 10:52:17 AM 41.6053 -86.2500 137° Southeast 107 123 5,000 146 Climbing Chicago Center
Sun 10:53:00 AM 41.5141 -86.0884 139° Southeast  Level FlightAware Approximate
Sun 10:53:19 AM 41.5742 -86.2117 137° Southeast 128 147 5,000  Level Chicago Center
Sun 10:54:00 AM 41.4822 -86.0512 139° Southeast  Level FlightAware Approximate
Sun 10:54:20 AM 41.5411 -86.1736 139° Southeast 149 171 5,000  Level Chicago Center
Sun 10:55:22 AM 41.5097 -86.1347 137° Southeast 153 176 5,000 -49 Level Chicago Center
Sun 10:56:23 AM 41.4761 -86.0978 141° Southeast 153 176 4,900  Descending Chicago Center
Sun 10:57:25 AM 41.4381 -86.0506 137° Southeast 154 177 5,000 49 Climbing Chicago Center
Sun 10:58:26 AM 41.4067 -86.0122 138° Southeast 154 177 5,000  Level Chicago Center
Sun 10:59:29 AM 41.3744 -85.9731 138° Southeast 154 177 5,000  Level Chicago Center
Sun 11:00:31 AM 41.3436 -85.9319 135° Southeast 154 177 5,000  Level Chicago Center
Sun 11:01:33 AM 41.3117 -85.8925 137° Southeast 154 177 5,000  Level Chicago Center
Sun 11:02:34 AM 41.2803 -85.8536 137° Southeast 154 177 5,000  Level Chicago Center
Sun 11:03:36 AM 41.2436 -85.8075 137° Southeast 154 177 5,000  Level Chicago Center
Sun 11:04:37 AM 41.2133 -85.7692 136° Southeast 154 177 5,000 -49 Level Chicago Center
Sun 11:05:39 AM 41.1819 -85.7325 139° Southeast 154 177 4,900  Descending Chicago Center
Sun 11:06:40 AM 41.1506 -85.6950 138° Southeast 154 177 5,000 49 Climbing Chicago Center
Sun 11:07:42 AM 41.1192 -85.6572 138° Southeast 154 177 5,000  Level Chicago Center
Sun 11:08:43 AM 41.0881 -85.6194 138° Southeast 154 177 5,000 -49 Level Chicago Center
Sun 11:09:45 AM 41.0581 -85.5822 137° Southeast 153 176 4,900 -49 Descending Chicago Center
Sun 11:10:46 AM 41.0208 -85.5369 137° Southeast 153 176 4,900 49 Level Chicago Center
Sun 11:11:48 AM 40.9886 -85.4983 138° Southeast 153 176 5,000 48 Climbing Chicago Center
Sun 11:12:50 AM 40.9581 -85.4608 137° Southeast 153 176 5,000  Level Chicago Center
Sun 11:13:51 AM 40.9269 -85.4228 137° Southeast 153 176 5,000  Level Chicago Center
Sun 11:14:53 AM 40.8958 -85.3833 136° Southeast 153 176 5,000  Level Chicago Center
Sun 11:15:54 AM 40.8647 -85.3469 139° Southeast 153 176 5,000  Level Chicago Center
Sun 11:16:56 AM 40.8333 -85.3094 138° Southeast 153 176 5,000 -48 Level Chicago Center
Sun 11:17:58 AM 40.7961 -85.2658 138° Southeast 153 176 4,900  Descending Chicago Center
Sun 11:18:59 AM 40.7650 -85.2281 137° Southeast 153 176 5,000 49 Climbing Chicago Center
Sun 11:20:01 AM 40.7336 -85.1917 139° Southeast 153 176 5,000  Level Chicago Center
Sun 11:21:02 AM 40.7036 -85.1528 135° Southeast 153 176 5,000  Level Chicago Center
Sun 11:22:04 AM 40.6717 -85.1175 140° Southeast 152 175 5,000  Level Chicago Center
Sun 11:23:06 AM 40.6411 -85.0803 137° Southeast 152 175 5,000  Level Chicago Center
Sun 11:24:07 AM 40.6108 -85.0425 137° Southeast 152 175 5,000  Level Chicago Center
Sun 11:25:09 AM 40.5797 -85.0056 138° Southeast 152 175 5,000  Level Chicago Center
Sun 11:26:11 AM 40.5433 -84.9617 137° Southeast 152 175 5,000  Level Chicago Center
Sun 11:27:13 AM 40.5119 -84.9244 138° Southeast 152 175 5,000  Level Chicago Center
Sun 11:28:14 AM 40.4811 -84.8883 138° Southeast 152 175 5,000  Level Chicago Center
Sun 11:29:16 AM 40.4506 -84.8517 138° Southeast 152 175 5,000  Level Chicago Center
Sun 11:30:18 AM 40.4197 -84.8122 136° Southeast 152 175 5,000  Level Chicago Center
Sun 11:31:19 AM 40.3886 -84.7764 139° Southeast 152 175 5,000 50 Level Chicago Center
Sun 11:32:19 AM 40.3531 -84.7422 144° Southeast 149 171 5,100 50 Climbing Indianapolis Center
Sun 11:33:20 AM 40.3194 -84.7031 138° Southeast 148 170 5,100  Level Indianapolis Center
Sun 11:34:21 AM 40.2897 -84.6672 137° Southeast 148 170 5,100  Level Indianapolis Center
Sun 11:35:22 AM 40.2578 -84.6308 139° Southeast 148 170 5,100  Level Indianapolis Center
Sun 11:36:23 AM 40.2281 -84.5953 138° Southeast 149 171 5,100  Level Indianapolis Center
Sun 11:37:24 AM 40.1961 -84.5592 139° Southeast 150 173 5,100  Level Indianapolis Center
Sun 11:38:25 AM 40.1647 -84.5203 137° Southeast 149 171 5,100  Level Indianapolis Center
Sun 11:39:20 AM 40.1367 -84.4878 138° Southeast 147 169 5,100 -94 Level Indianapolis Center
Sun 11:40:33 AM 40.1031 -84.4486 138° Southeast 142 163 4,900 -422 Descending Indianapolis Center
Sun 11:41:28 AM 40.0728 -84.4158 140° Southeast 147 169 4,200 -621 Descending Indianapolis Center
Sun 11:42:29 AM 40.0392 -84.3767 138° Southeast 157 181 3,700 -469 Descending Indianapolis Center
Sun 11:43:36 AM 40.0053 -84.3378 139° Southeast 146 168 3,200 -422 Descending Indianapolis Center
Sun 11:44:37 AM 39.9706 -84.3094 148° Southeast 141 162 2,800 -207 Descending Indianapolis Center
Sun 11:45:32 AM 39.9444 -84.2967 159° South 104 120 2,800 -259 Level Indianapolis Center
Sun 11:46:33 AM 39.9164 -84.2833 160° South 106 122 2,300 -516 Descending Indianapolis Center
Sun 11:47:40 AM 39.8894 -84.2594 146° Southeast 97 112 1,700 -443 Descending Indianapolis Center
Sun 11:48:35 AM 39.8839 -84.2339 106° East 91 105 1,400 -327 Descending Indianapolis Center

Login

Don't have an account? Register now (free) for customized features, flight alerts, and more!